Terminal Aerodrome Forecast
Issued by NWS New Orleans/Baton Rouge, LA

Home | Current Version | Previous Version | Text Only | Print | Product List | Glossary On
Versions: 1 2 3 4 5 6 7 8 9 10
000
FTUS44 KLIX 262100 AAA
TAFBTR
TAF AMD
KBTR 262142Z 2622/2718 09007KT P6SM OVC020
     FM270000 11010KT P6SM SCT020 BKN050
     FM270400 11009KT P6SM OVC030
     FM270500 11009KT 3SM SHRA OVC025
     FM271200 11007KT 1SM SHRA OVC010=

USA.gov is the U.S. government's official web portal to all federal, state and local government web resources and services.